createdAt,value
2023-04-03T00:12:12.142Z,0.84
2023-04-03T00:17:41.581Z,0.80
2023-04-03T00:22:45.076Z,0.84
2023-04-03T00:35:35.888Z,0.77
2023-04-03T00:48:34.665Z,0.63
2023-04-03T00:53:50.815Z,0.68
2023-04-03T01:00:17.071Z,0.72
2023-04-03T01:05:57.761Z,0.68
2023-04-03T01:19:40.253Z,0.54
2023-04-03T01:24:43.975Z,0.55
2023-04-03T01:36:55.053Z,0.43
2023-04-03T01:42:00.594Z,0.36
2023-04-03T01:47:08.680Z,0.35
2023-04-03T01:52:37.124Z,0.39
2023-04-03T01:57:40.860Z,0.39
2023-04-03T02:02:44.479Z,0.31
2023-04-03T02:07:48.186Z,0.19
2023-04-03T02:12:52.024Z,0.12
2023-04-03T02:17:55.790Z,0.12
2023-04-03T02:23:00.592Z,0.13
2023-04-03T02:28:04.233Z,0.10
2023-04-03T02:33:07.847Z,0.02
2023-04-03T02:38:11.896Z,-0.08
2023-04-03T02:50:23.628Z,-0.14
2023-04-03T02:55:52.235Z,-0.09
2023-04-03T03:09:26.019Z,-0.21
2023-04-03T03:14:29.605Z,-0.31
2023-04-03T03:20:24.627Z,-0.36
2023-04-03T03:25:28.300Z,-0.30
2023-04-03T03:37:40.653Z,-0.38
2023-04-03T03:42:44.183Z,-0.44
2023-04-03T03:58:22.450Z,-0.41
2023-04-03T04:12:18.007Z,-0.53
2023-04-03T04:17:22.038Z,-0.56
2023-04-03T04:22:25.954Z,-0.53
2023-04-03T04:27:29.504Z,-0.52
2023-04-03T04:39:41.332Z,-0.52
2023-04-03T04:45:11.769Z,-0.46
2023-04-03T04:50:18.887Z,-0.30
2023-04-03T05:18:33.942Z,1.12
2023-04-03T05:24:28.615Z,1.13
2023-04-03T05:29:56.280Z,1.16
2023-04-03T05:47:14.738Z,1.47
2023-04-03T05:59:47.989Z,1.74
2023-04-03T06:04:52.797Z,1.78
2023-04-03T06:23:27.456Z,2.31
2023-04-03T06:29:28.764Z,2.46
2023-04-03T06:34:58.502Z,2.52
2023-04-03T06:47:42.598Z,2.84
2023-04-03T06:52:49.077Z,2.99
2023-04-03T06:58:21.096Z,3.29
2023-04-03T07:03:41.698Z,3.55
2023-04-03T07:10:01.312Z,3.61
2023-04-03T07:16:00.246Z,3.81
2023-04-03T07:21:05.507Z,3.92
2023-04-03T07:26:24.253Z,4.17
2023-04-03T07:40:06.356Z,4.66
2023-04-03T07:59:42.427Z,5.10
2023-04-03T08:04:46.472Z,5.38
2023-04-03T08:09:50.563Z,5.78
2023-04-03T08:14:54.193Z,5.97
2023-04-03T08:20:27.091Z,5.97
2023-04-03T08:33:24.941Z,6.17
2023-04-03T08:46:55.449Z,6.34
2023-04-03T08:52:16.418Z,6.61
2023-04-03T08:57:39.992Z,6.45
2023-04-03T09:03:15.445Z,6.36
2023-04-03T09:09:13.374Z,6.16
2023-04-03T09:14:46.953Z,6.45
2023-04-03T09:20:22.953Z,6.26
2023-04-03T09:47:24.341Z,9.13
2023-04-03T09:52:28.091Z,8.56
2023-04-03T09:58:26.939Z,8.67
2023-04-03T10:03:37.995Z,9.32
2023-04-03T10:10:04.617Z,9.49
2023-04-03T10:22:57.398Z,8.70
2023-04-03T10:28:53.159Z,9.08
2023-04-03T10:34:46.742Z,9.65
2023-04-03T10:40:17.075Z,9.63
2023-04-03T10:46:37.399Z,9.65
2023-04-03T10:52:08.752Z,9.96
2023-04-03T10:58:17.615Z,10.19
2023-04-03T11:03:47.544Z,10.55
2023-04-03T11:09:20.890Z,10.32
2023-04-03T11:14:36.841Z,10.69
2023-04-03T11:20:21.163Z,10.75
2023-04-03T11:25:28.320Z,10.34
2023-04-03T11:30:53.530Z,10.63
2023-04-03T11:36:57.362Z,10.43
2023-04-03T11:43:18.838Z,10.63
2023-04-03T12:05:56.154Z,9.93
2023-04-03T12:11:51.460Z,9.78
2023-04-03T12:28:46.347Z,10.86
2023-04-03T12:34:27.482Z,10.94
2023-04-03T12:48:08.021Z,10.59
2023-04-03T13:01:27.792Z,10.00
2023-04-03T13:07:32.104Z,10.29
2023-04-03T13:34:12.961Z,9.12
2023-04-03T13:39:16.774Z,9.30
2023-04-03T13:53:30.599Z,8.77
2023-04-03T13:58:37.304Z,8.16
2023-04-03T14:03:46.252Z,8.39
2023-04-03T14:19:28.944Z,7.77
2023-04-03T14:26:11.464Z,7.51
2023-04-03T14:31:19.587Z,7.21
2023-04-03T14:45:01.896Z,7.55
2023-04-03T14:50:08.670Z,7.16
2023-04-03T14:55:58.798Z,7.09
2023-04-03T15:01:35.035Z,7.74
2023-04-03T15:06:39.135Z,7.33
2023-04-03T15:11:42.846Z,6.74
2023-04-03T15:16:47.529Z,6.82
2023-04-03T15:21:51.134Z,7.14
2023-04-03T15:26:56.578Z,6.87
2023-04-03T15:32:00.397Z,6.55
2023-04-03T15:37:04.341Z,6.30
2023-04-03T15:42:08.168Z,5.94
2023-04-03T15:47:12.196Z,5.64
2023-04-03T15:52:16.078Z,5.36
2023-04-03T15:57:19.897Z,5.14
2023-04-03T16:02:24.529Z,4.97
2023-04-03T16:14:34.820Z,4.59
2023-04-03T16:27:29.088Z,4.43
2023-04-03T16:32:34.170Z,4.32
2023-04-03T16:38:03.352Z,4.19
2023-04-03T16:43:07.490Z,4.07
2023-04-03T16:48:37.148Z,3.93
2023-04-03T16:53:41.564Z,3.90
2023-04-03T16:58:46.447Z,3.83
2023-04-03T17:03:50.975Z,3.73
2023-04-03T17:08:54.951Z,3.65
2023-04-03T17:13:59.424Z,3.52
2023-04-03T17:34:16.874Z,3.15
2023-04-03T17:40:46.462Z,2.99
2023-04-03T17:45:54.346Z,2.83
2023-04-03T17:52:21.120Z,2.68
2023-04-03T17:57:29.696Z,2.45
2023-04-03T18:02:59.769Z,2.32
2023-04-03T18:08:04.504Z,2.24
2023-04-03T18:13:09.157Z,2.17
2023-04-03T18:19:35.010Z,2.11
2023-04-03T18:24:39.338Z,2.01
2023-04-03T18:29:49.173Z,1.95
2023-04-03T18:35:15.134Z,1.88
2023-04-03T18:40:19.111Z,1.82
2023-04-03T18:45:24.482Z,1.77
2023-04-03T18:50:31.008Z,1.72
2023-04-03T18:56:35.048Z,1.65
2023-04-03T19:09:59.226Z,1.51
2023-04-03T19:15:59.151Z,1.41
2023-04-03T19:38:04.086Z,1.22
2023-04-03T19:43:09.355Z,1.16
2023-04-03T19:48:15.012Z,1.11
2023-04-03T19:53:22.402Z,1.01
2023-04-03T20:12:50.636Z,0.70
2023-04-03T20:25:05.264Z,0.60
2023-04-03T20:30:14.181Z,0.53
2023-04-03T20:35:20.896Z,0.43
2023-04-03T20:40:50.859Z,0.36
2023-04-03T20:45:55.104Z,0.33
2023-04-03T20:50:59.440Z,0.29
2023-04-03T20:56:04.157Z,0.23
2023-04-03T21:01:24.501Z,0.18
2023-04-03T21:07:25.052Z,0.11
2023-04-03T21:13:25.724Z,0.04
2023-04-03T21:18:37.498Z,-0.02
2023-04-03T21:23:42.068Z,-0.10
2023-04-03T21:28:46.740Z,-0.14
2023-04-03T21:33:51.500Z,-0.22
2023-04-03T21:38:58.454Z,-0.26
2023-04-03T21:44:53.231Z,-0.30
2023-04-03T21:49:57.405Z,-0.38
2023-04-03T21:55:01.143Z,-0.39
2023-04-03T22:00:07.887Z,-0.42
2023-04-03T22:05:12.251Z,-0.47
2023-04-03T22:10:16.872Z,-0.52
2023-04-03T22:15:20.477Z,-0.54
2023-04-03T22:20:24.317Z,-0.61
2023-04-03T22:25:28.169Z,-0.68
2023-04-03T22:30:32.312Z,-0.71
2023-04-03T22:35:35.947Z,-0.73
2023-04-03T22:40:40.331Z,-0.76
2023-04-03T22:45:49.431Z,-0.85
2023-04-03T22:50:53.365Z,-0.88
2023-04-03T22:55:59.154Z,-0.87
2023-04-03T23:01:08.681Z,-0.88
2023-04-03T23:06:13.716Z,-0.91
2023-04-03T23:11:17.249Z,-0.92
2023-04-03T23:16:20.838Z,-0.92
2023-04-03T23:21:24.488Z,-0.98
2023-04-03T23:26:28.016Z,-0.99
2023-04-03T23:31:32.026Z,-1.02
2023-04-03T23:36:36.006Z,-1.04
2023-04-03T23:41:39.908Z,-1.09
2023-04-03T23:46:44.124Z,-1.18
2023-04-03T23:51:47.749Z,-1.20
2023-04-03T23:56:51.677Z,-1.14
